Time;durP1;ratioP1;P1;durP2;ratioP2;P2;SDS_P1;SDS_P2;PMS_P1;PMS_P2;Temp;Humidity;BMP_temperature;BMP_pressure;BME280_temperature;BME280_humidity;BME280_pressure;Samples;Min_cycle;Max_cycle;Signal;HPM_P1;HPM_P2
2021/01/09 00:00:15;;;;;;;21.38;12.00;;;0.20;75.70;;;;;;4979193;28;20042;-86
2021/01/09 00:02:42;;;;;;;22.50;12.48;;;0.20;75.80;;;;;;4980079;28;20019;-87
2021/01/09 00:05:09;;;;;;;20.20;12.18;;;0.20;76.00;;;;;;4964818;28;20034;-88
2021/01/09 00:07:39;;;;;;;24.38;13.63;;;0.20;76.00;;;;;;5002724;28;20026;-90
2021/01/09 00:10:07;;;;;;;26.52;13.30;;;0.20;76.00;;;;;;4981553;28;20077;-90
2021/01/09 00:12:37;;;;;;;26.48;12.32;;;0.30;76.10;;;;;;4984409;28;20032;-90
2021/01/09 00:15:06;;;;;;;22.80;11.73;;;0.30;76.00;;;;;;4984231;28;20121;-87
2021/01/09 00:17:34;;;;;;;21.38;10.98;;;0.30;75.50;;;;;;4980832;28;20026;-89
2021/01/09 00:20:01;;;;;;;23.02;11.63;;;0.10;75.00;;;;;;5000534;28;20051;-89
2021/01/09 00:22:26;;;;;;;23.33;12.05;;;0.20;75.00;;;;;;4997566;28;20042;-87
2021/01/09 00:24:53;;;;;;;23.50;12.38;;;0.10;75.00;;;;;;4979597;28;20030;-80
2021/01/09 00:27:21;;;;;;;20.58;11.23;;;0.10;74.90;;;;;;4995229;28;20499;-77
2021/01/09 00:29:46;;;;;;;22.63;12.25;;;0.10;75.10;;;;;;4977631;28;20032;-80
2021/01/09 00:32:12;;;;;;;24.50;12.65;;;0.10;74.90;;;;;;4961750;28;20368;-77
2021/01/09 00:34:38;;;;;;;25.63;12.88;;;0.10;74.90;;;;;;4961450;28;20117;-78
2021/01/09 00:37:04;;;;;;;22.25;11.75;;;0.00;75.10;;;;;;4977744;28;20068;-79
2021/01/09 00:39:30;;;;;;;25.83;13.10;;;0.10;75.30;;;;;;4977463;28;20026;-78
2021/01/09 00:42:01;;;;;;;27.25;12.02;;;0.10;75.00;;;;;;4977413;28;20044;-78
2021/01/09 00:44:28;;;;;;;22.65;11.73;;;0.10;74.80;;;;;;4977520;28;20030;-78
2021/01/09 00:46:58;;;;;;;22.70;10.90;;;0.00;74.70;;;;;;4977525;28;20030;-79
2021/01/09 00:49:24;;;;;;;23.85;11.85;;;-0.10;75.00;;;;;;4977347;28;20035;-80
2021/01/09 00:51:51;;;;;;;21.60;12.25;;;-0.10;75.50;;;;;;4977450;28;20034;-80
2021/01/09 00:54:19;;;;;;;19.98;11.18;;;-0.10;75.90;;;;;;4977418;28;20069;-78
2021/01/09 00:56:52;;;;;;;21.17;12.45;;;-0.10;76.00;;;;;;4961476;28;20030;-78
2021/01/09 00:59:17;;;;;;;19.30;10.82;;;0.00;76.10;;;;;;4962226;28;20031;-79
2021/01/09 01:01:45;;;;;;;19.92;11.77;;;-0.10;76.00;;;;;;4976469;28;20025;-78
2021/01/09 01:04:13;;;;;;;25.48;12.32;;;0.00;75.80;;;;;;4977280;28;20113;-80
2021/01/09 01:06:43;;;;;;;23.73;11.75;;;0.00;75.80;;;;;;4994674;28;20073;-78
2021/01/09 01:09:19;;;;;;;21.98;11.65;;;0.00;75.80;;;;;;4994611;28;20022;-78
2021/01/09 01:11:44;;;;;;;24.83;11.68;;;0.00;75.50;;;;;;4977044;28;20054;-78
2021/01/09 01:14:10;;;;;;;23.02;11.93;;;0.00;75.30;;;;;;4960769;28;20065;-79
2021/01/09 01:16:37;;;;;;;24.88;11.70;;;0.00;75.20;;;;;;4960706;28;20037;-79
2021/01/09 01:19:05;;;;;;;23.90;12.02;;;-0.10;75.20;;;;;;4961035;28;20482;-78
2021/01/09 01:21:36;;;;;;;20.23;11.05;;;-0.10;75.30;;;;;;4992981;28;20030;-79
2021/01/09 01:24:03;;;;;;;22.60;11.70;;;-0.10;75.60;;;;;;4976747;28;20039;-78
2021/01/09 01:26:29;;;;;;;20.80;11.30;;;-0.10;75.70;;;;;;4976343;28;20587;-78
2021/01/09 01:28:56;;;;;;;22.00;11.50;;;0.00;75.70;;;;;;4976644;28;20069;-78
2021/01/09 01:31:26;;;;;;;20.38;11.70;;;0.00;75.70;;;;;;4976863;28;20469;-81
2021/01/09 01:33:52;;;;;;;24.10;11.75;;;0.00;75.60;;;;;;4976299;28;20034;-78
2021/01/09 01:36:18;;;;;;;24.88;13.27;;;0.00;75.70;;;;;;4976833;28;20038;-78
2021/01/09 01:38:52;;;;;;;21.13;11.65;;;0.10;75.50;;;;;;4976262;28;20072;-78
2021/01/09 01:41:18;;;;;;;23.20;12.43;;;0.00;75.40;;;;;;4976735;28;20394;-78
2021/01/09 01:43:43;;;;;;;30.13;13.48;;;0.00;75.30;;;;;;4976182;28;20026;-78
2021/01/09 01:46:15;;;;;;;20.67;11.57;;;-0.10;75.40;;;;;;4976503;28;20022;-78
2021/01/09 01:48:42;;;;;;;21.63;11.20;;;-0.10;75.50;;;;;;4960976;28;20030;-78
2021/01/09 01:51:13;;;;;;;19.13;10.10;;;-0.10;75.80;;;;;;4976325;28;20409;-79
2021/01/09 01:53:39;;;;;;;23.63;10.85;;;-0.30;75.80;;;;;;4960211;28;20034;-78
2021/01/09 01:56:06;;;;;;;22.52;11.27;;;-0.20;76.00;;;;;;4975894;28;20093;-78
2021/01/09 01:58:32;;;;;;;21.13;11.32;;;-0.20;76.10;;;;;;4975887;28;20034;-78
2021/01/09 02:00:58;;;;;;;23.15;12.25;;;-0.20;76.20;;;;;;4976014;28;20382;-78
2021/01/09 02:03:24;;;;;;;21.23;10.88;;;-0.20;76.30;;;;;;4992193;28;20022;-78
2021/01/09 02:06:10;;;;;;;21.88;10.70;;;-0.30;76.50;;;;;;4976087;28;20026;-78
2021/01/09 02:08:44;;;;;;;20.42;10.90;;;-0.20;76.50;;;;;;4976232;28;20030;-78
2021/01/09 02:11:23;;;;;;;25.08;12.82;;;-0.20;76.50;;;;;;4976447;28;20132;-78
2021/01/09 02:13:59;;;;;;;36.42;16.20;;;-0.10;76.50;;;;;;4975912;28;20174;-78
2021/01/09 02:16:25;;;;;;;31.33;13.63;;;-0.10;76.40;;;;;;4975982;28;20027;-78
2021/01/09 02:18:52;;;;;;;26.13;11.45;;;0.00;76.20;;;;;;4975770;28;20027;-78
2021/01/09 02:21:41;;;;;;;22.80;11.15;;;0.00;76.10;;;;;;4976178;28;20109;-78
2021/01/09 02:24:15;;;;;;;17.92;10.02;;;0.10;76.10;;;;;;4975960;28;20508;-79
2021/01/09 02:26:42;;;;;;;21.45;10.25;;;0.10;75.90;;;;;;4960050;28;20066;-79
2021/01/09 02:29:08;;;;;;;20.27;10.73;;;0.10;75.70;;;;;;4976450;28;20071;-79
2021/01/09 02:31:42;;;;;;;20.95;11.30;;;0.00;75.50;;;;;;4977417;28;20394;-80
2021/01/09 02:34:11;;;;;;;18.63;10.45;;;0.00;75.70;;;;;;4960585;28;20069;-85
2021/01/09 02:36:40;;;;;;;19.35;9.70;;;0.00;75.70;;;;;;4976312;28;20038;-84
2021/01/09 02:39:07;;;;;;;18.67;9.57;;;0.00;75.90;;;;;;4976365;28;20026;-79
2021/01/09 02:41:36;;;;;;;17.48;9.43;;;0.00;76.00;;;;;;4975679;28;20117;-82
2021/01/09 02:44:14;;;;;;;17.00;9.07;;;0.00;76.20;;;;;;4975914;28;20026;-77
2021/01/09 02:46:41;;;;;;;15.50;8.40;;;-0.10;76.50;;;;;;4975073;28;20053;-78
2021/01/09 02:49:08;;;;;;;16.33;8.52;;;-0.10;76.50;;;;;;4991872;28;20061;-77
2021/01/09 02:51:36;;;;;;;15.23;8.60;;;-0.10;76.50;;;;;;4959728;28;20487;-77
2021/01/09 02:54:01;;;;;;;14.93;8.13;;;-0.10;76.50;;;;;;4975804;28;20053;-77
2021/01/09 02:56:29;;;;;;;12.15;7.30;;;-0.10;76.40;;;;;;4993079;28;20039;-77
2021/01/09 02:58:55;;;;;;;13.05;7.13;;;0.00;76.30;;;;;;4975812;28;20035;-77
2021/01/09 03:01:24;;;;;;;17.33;8.82;;;0.00;76.20;;;;;;4975083;28;20031;-79
2021/01/09 03:03:51;;;;;;;14.55;8.48;;;0.00;75.90;;;;;;4975530;28;20062;-77
2021/01/09 03:06:17;;;;;;;17.88;8.98;;;0.00;75.70;;;;;;4975656;28;20038;-77
2021/01/09 03:08:42;;;;;;;17.58;8.95;;;0.10;75.70;;;;;;4975392;28;20023;-77
2021/01/09 03:11:09;;;;;;;15.27;8.50;;;0.10;75.80;;;;;;4975426;28;20030;-77
2021/01/09 03:13:35;;;;;;;15.25;8.25;;;0.10;75.70;;;;;;4993006;28;20471;-78
2021/01/09 03:16:01;;;;;;;16.05;8.68;;;0.10;75.60;;;;;;4992707;28;20133;-77
2021/01/09 03:18:29;;;;;;;13.88;8.13;;;0.00;75.40;;;;;;4975348;28;20073;-78
2021/01/09 03:20:54;;;;;;;13.70;7.38;;;0.00;75.40;;;;;;4991647;28;20487;-78
2021/01/09 03:23:22;;;;;;;14.35;7.25;;;0.00;75.50;;;;;;4991639;28;20089;-79
2021/01/09 03:25:47;;;;;;;13.00;7.88;;;0.10;75.70;;;;;;4993915;28;20018;-80
2021/01/09 03:28:13;;;;;;;15.35;7.80;;;0.00;75.60;;;;;;4978758;28;20034;-77
2021/01/09 03:30:39;;;;;;;13.15;7.18;;;0.10;75.70;;;;;;4996341;28;20120;-79
2021/01/09 03:33:05;;;;;;;14.27;8.35;;;0.10;75.70;;;;;;4979131;28;20112;-81
2021/01/09 03:35:33;;;;;;;14.32;7.35;;;0.10;75.60;;;;;;4978875;28;20062;-79
2021/01/09 03:37:58;;;;;;;16.05;8.50;;;0.20;75.50;;;;;;4962900;28;20026;-79
2021/01/09 03:40:24;;;;;;;16.70;7.80;;;0.10;75.40;;;;;;4978415;28;20030;-79
2021/01/09 03:42:49;;;;;;;14.82;8.07;;;0.20;75.40;;;;;;4978605;28;20038;-79
2021/01/09 03:45:15;;;;;;;12.57;7.50;;;0.20;75.40;;;;;;4978507;28;20119;-80
2021/01/09 03:47:40;;;;;;;14.77;7.90;;;0.20;75.40;;;;;;4978450;28;20019;-79
2021/01/09 03:50:10;;;;;;;14.10;7.72;;;0.20;75.30;;;;;;4978586;28;20033;-79
2021/01/09 03:52:36;;;;;;;14.85;8.60;;;0.30;75.50;;;;;;4978571;28;20022;-79
2021/01/09 03:55:04;;;;;;;16.75;8.68;;;0.30;75.40;;;;;;4978083;28;20471;-78
2021/01/09 03:57:30;;;;;;;12.80;7.40;;;0.20;75.30;;;;;;4978310;28;20026;-78
2021/01/09 03:59:55;;;;;;;13.15;7.90;;;0.20;75.50;;;;;;4962306;28;20031;-77
2021/01/09 04:02:21;;;;;;;18.55;9.10;;;0.20;75.60;;;;;;4995826;28;20054;-81
2021/01/09 04:04:47;;;;;;;19.55;10.55;;;0.30;75.80;;;;;;4978145;28;20074;-78
2021/01/09 04:07:13;;;;;;;16.08;9.98;;;0.20;75.70;;;;;;4978486;28;20043;-82
2021/01/09 04:09:38;;;;;;;21.15;11.00;;;0.20;75.90;;;;;;4978681;28;20030;-76
2021/01/09 04:12:04;;;;;;;22.33;10.93;;;0.10;76.30;;;;;;4978150;28;20577;-80
2021/01/09 04:14:30;;;;;;;18.75;9.65;;;0.00;76.60;;;;;;4995633;28;20573;-79
2021/01/09 04:16:57;;;;;;;21.55;11.07;;;0.00;76.70;;;;;;4995530;28;20031;-79
2021/01/09 04:19:22;;;;;;;22.83;11.02;;;0.00;76.90;;;;;;4961963;28;20571;-79
2021/01/09 04:21:51;;;;;;;16.60;9.68;;;-0.10;77.30;;;;;;4995469;28;20086;-81
2021/01/09 04:24:27;;;;;;;18.88;10.80;;;-0.10;77.60;;;;;;4978052;28;20138;-78
2021/01/09 04:26:57;;;;;;;19.73;11.38;;;-0.10;77.60;;;;;;4978123;28;20475;-80
2021/01/09 04:29:23;;;;;;;18.23;9.90;;;-0.10;78.30;;;;;;4978002;28;20034;-77
2021/01/09 04:31:49;;;;;;;18.67;11.25;;;-0.10;77.40;;;;;;4977933;28;20125;-78
2021/01/09 04:34:15;;;;;;;19.48;9.90;;;-0.10;77.40;;;;;;4977780;28;20085;-79
2021/01/09 04:36:41;;;;;;;23.40;11.25;;;-0.20;77.50;;;;;;4978238;28;20030;-80
2021/01/09 04:39:06;;;;;;;23.23;12.63;;;-0.20;77.80;;;;;;4994135;28;20041;-84
2021/01/09 04:41:39;;;;;;;22.50;11.07;;;-0.30;78.20;;;;;;4977424;28;20037;-78
2021/01/09 04:44:06;;;;;;;20.48;11.63;;;-0.40;78.30;;;;;;4977842;28;20433;-84
2021/01/09 04:46:54;;;;;;;24.58;12.40;;;-0.40;78.50;;;;;;4977278;28;20034;-86
2021/01/09 04:49:24;;;;;;;27.30;13.77;;;-0.50;78.90;;;;;;4995723;28;20030;-87
2021/01/09 04:51:54;;;;;;;21.67;11.13;;;-0.70;79.90;;;;;;4965797;28;20038;-84
2021/01/09 04:54:23;;;;;;;23.63;10.93;;;-0.70;80.30;;;;;;4989684;28;20038;-85
2021/01/09 04:56:53;;;;;;;22.30;11.82;;;-0.60;80.20;;;;;;4973359;28;20097;-88
2021/01/09 04:59:19;;;;;;;19.23;11.20;;;-0.60;80.00;;;;;;4988953;28;20070;-84
2021/01/09 05:01:47;;;;;;;18.67;10.68;;;-0.60;80.10;;;;;;4980709;28;20036;-90
2021/01/09 05:04:16;;;;;;;18.38;10.10;;;-0.50;80.00;;;;;;4978477;28;20027;-88
2021/01/09 05:06:43;;;;;;;19.50;10.52;;;-0.40;79.80;;;;;;4978603;28;20560;-83
2021/01/09 05:09:10;;;;;;;18.30;10.38;;;-0.30;79.70;;;;;;4978112;28;20026;-79
2021/01/09 05:11:37;;;;;;;20.75;10.15;;;-0.20;79.40;;;;;;4962014;28;20188;-83
2021/01/09 05:14:05;;;;;;;18.02;10.65;;;-0.20;79.10;;;;;;4995398;28;20038;-84
2021/01/09 05:16:31;;;;;;;16.65;9.60;;;-0.10;79.00;;;;;;4978191;28;20026;-84
2021/01/09 05:18:57;;;;;;;18.25;10.65;;;-0.10;78.80;;;;;;4978515;28;20023;-81
2021/01/09 05:21:24;;;;;;;16.40;9.68;;;-0.10;78.50;;;;;;4977717;28;20045;-89
2021/01/09 05:23:59;;;;;;;17.10;9.75;;;0.00;78.40;;;;;;4961863;28;20046;-81
2021/01/09 05:26:26;;;;;;;;;;;0.00;78.30;;;;;;4978931;28;20041;-91
2021/01/09 05:28:55;;;;;;;23.20;10.52;;;0.00;78.10;;;;;;4978839;28;20347;-89
2021/01/09 05:31:22;;;;;;;22.17;10.95;;;0.00;77.90;;;;;;4978892;28;20482;-81
2021/01/09 05:33:51;;;;;;;18.75;10.32;;;0.00;77.80;;;;;;4980209;28;20173;-85
2021/01/09 05:36:18;;;;;;;20.33;11.05;;;0.00;77.80;;;;;;4982065;28;20045;-83
2021/01/09 05:38:46;;;;;;;19.75;11.15;;;0.00;77.60;;;;;;4981995;28;20121;-83
2021/01/09 05:41:17;;;;;;;18.35;10.02;;;0.10;77.80;;;;;;4978483;28;20034;-86
2021/01/09 05:43:55;;;;;;;18.13;10.45;;;0.00;77.60;;;;;;4980245;28;20052;-77
2021/01/09 05:46:22;;;;;;;19.13;10.25;;;0.10;77.60;;;;;;4980231;28;20095;-78
2021/01/09 05:48:48;;;;;;;18.25;10.20;;;0.10;77.50;;;;;;4980292;28;20030;-84
2021/01/09 05:51:17;;;;;;;17.10;9.57;;;0.10;77.50;;;;;;4980525;28;20037;-79
2021/01/09 05:53:47;;;;;;;18.90;9.55;;;0.20;77.40;;;;;;4981230;28;20041;-78
2021/01/09 05:56:21;;;;;;;20.75;10.55;;;0.20;77.40;;;;;;4960658;28;20097;-77
2021/01/09 05:58:49;;;;;;;16.92;9.75;;;0.20;77.30;;;;;;4976457;28;20062;-78
2021/01/09 06:01:16;;;;;;;18.67;10.00;;;0.20;78.00;;;;;;4976851;28;20026;-77
2021/01/09 06:03:46;;;;;;;22.52;12.30;;;0.20;77.10;;;;;;4976296;28;20491;-76
2021/01/09 06:06:38;;;;;;;20.73;11.68;;;0.20;77.00;;;;;;4976433;28;20030;-78
2021/01/09 06:09:05;;;;;;;24.00;11.57;;;0.20;77.10;;;;;;4976806;28;20023;-76
2021/01/09 06:11:34;;;;;;;18.50;10.65;;;0.10;77.20;;;;;;4976393;28;20031;-77
2021/01/09 06:14:03;;;;;;;20.42;10.63;;;0.00;78.10;;;;;;4976343;28;20444;-77
2021/01/09 06:16:30;;;;;;;21.02;10.90;;;0.00;77.30;;;;;;4976280;28;20121;-76
2021/01/09 06:18:57;;;;;;;19.30;10.55;;;0.00;77.50;;;;;;4976017;28;20427;-77
2021/01/09 06:21:23;;;;;;;20.20;10.27;;;0.00;77.60;;;;;;4975488;28;20384;-79
2021/01/09 06:23:49;;;;;;;18.02;9.68;;;0.00;77.70;;;;;;4962487;28;20047;-77
2021/01/09 06:26:15;;;;;;;19.00;11.32;;;0.10;77.80;;;;;;4956812;28;20494;-79
2021/01/09 06:28:45;;;;;;;21.75;10.85;;;0.10;77.70;;;;;;4956789;28;20051;-77
2021/01/09 06:31:19;;;;;;;19.35;10.13;;;0.00;77.50;;;;;;4956796;28;20031;-77
2021/01/09 06:33:47;;;;;;;17.58;9.85;;;-0.10;77.60;;;;;;4956691;28;20034;-78
2021/01/09 06:36:15;;;;;;;19.58;10.73;;;-0.10;77.70;;;;;;4940862;28;20035;-79
2021/01/09 06:38:50;;;;;;;21.77;10.75;;;-0.20;77.90;;;;;;4956656;28;20094;-78
2021/01/09 06:41:18;;;;;;;19.58;11.05;;;-0.20;78.20;;;;;;4957018;28;20086;-78
2021/01/09 06:43:50;;;;;;;21.27;9.55;;;-0.10;78.30;;;;;;4956746;28;20023;-79
2021/01/09 06:46:30;;;;;;;24.20;11.93;;;-0.20;78.00;;;;;;4953821;28;20502;-79
2021/01/09 06:48:57;;;;;;;19.73;10.50;;;-0.20;78.00;;;;;;4956771;28;20126;-78
2021/01/09 06:51:54;;;;;;;18.73;10.70;;;-0.20;78.10;;;;;;4955870;28;20046;-78
2021/01/09 06:54:21;;;;;;;21.55;11.02;;;-0.10;78.20;;;;;;4956511;28;20059;-78
2021/01/09 06:57:05;;;;;;;20.17;10.82;;;-0.10;77.80;;;;;;4956540;28;20039;-77
2021/01/09 06:59:37;;;;;;;20.25;10.73;;;-0.10;77.90;;;;;;4943460;28;20070;-79
2021/01/09 07:02:26;;;;;;;22.77;11.85;;;-0.10;77.60;;;;;;4960118;28;20114;-78
2021/01/09 07:04:59;;;;;;;24.45;11.60;;;-0.20;77.60;;;;;;4944038;28;20122;-78
2021/01/09 07:07:36;;;;;;;27.42;12.27;;;-0.20;77.80;;;;;;4960091;28;20023;-78
2021/01/09 07:10:16;;;;;;;22.70;10.80;;;-0.30;77.70;;;;;;4977489;28;20054;-78
2021/01/09 07:12:49;;;;;;;21.60;10.32;;;-0.30;77.80;;;;;;4960054;28;20165;-79
2021/01/09 07:15:16;;;;;;;17.25;9.75;;;-0.20;77.80;;;;;;4975957;28;20109;-79
2021/01/09 07:17:52;;;;;;;16.70;9.40;;;-0.20;78.00;;;;;;4959849;28;20075;-78
2021/01/09 07:20:20;;;;;;;18.55;10.70;;;-0.20;77.80;;;;;;4959773;28;20113;-78
2021/01/09 07:22:50;;;;;;;20.45;10.48;;;-0.30;78.20;;;;;;4964565;28;20045;-79
2021/01/09 07:25:27;;;;;;;21.90;11.90;;;-0.20;77.70;;;;;;4996546;28;20099;-78
2021/01/09 07:28:20;;;;;;;20.75;10.88;;;-0.20;77.50;;;;;;4979043;28;20403;-78
2021/01/09 07:30:45;;;;;;;20.65;10.68;;;-0.20;77.30;;;;;;4954991;28;20049;-77
2021/01/09 07:33:14;;;;;;;18.70;10.60;;;-0.10;77.00;;;;;;4978688;28;20494;-77
2021/01/09 07:35:45;;;;;;;18.45;10.35;;;-0.10;77.50;;;;;;4978553;28;20054;-77
2021/01/09 07:38:12;;;;;;;18.08;10.38;;;-0.20;76.60;;;;;;4995077;28;20027;-78
2021/01/09 07:40:56;;;;;;;20.23;11.07;;;-0.20;76.50;;;;;;4995973;28;20034;-78
2021/01/09 07:43:47;;;;;;;15.73;9.50;;;-0.10;76.60;;;;;;4978376;28;20022;-78
2021/01/09 07:46:27;;;;;;;15.85;10.00;;;-0.10;76.30;;;;;;4994738;28;20061;-77
2021/01/09 07:48:56;;;;;;;21.27;11.55;;;0.00;76.00;;;;;;4962608;28;20038;-77
2021/01/09 07:51:44;;;;;;;17.20;9.40;;;0.00;75.70;;;;;;4978518;28;20050;-77
2021/01/09 07:54:10;;;;;;;16.58;9.52;;;-0.10;74.90;;;;;;4978421;28;20018;-79
2021/01/09 07:56:37;;;;;;;13.70;8.70;;;-0.20;74.50;;;;;;4995800;28;20041;-78
2021/01/09 07:59:06;;;;;;;15.30;8.82;;;-0.20;74.40;;;;;;4978433;28;20027;-77
2021/01/09 08:01:45;;;;;;;13.80;8.68;;;-0.20;74.50;;;;;;4978408;28;20087;-77
2021/01/09 08:04:19;;;;;;;15.45;8.68;;;-0.20;74.70;;;;;;4962140;28;20027;-77
2021/01/09 08:06:47;;;;;;;15.25;7.97;;;-0.10;74.80;;;;;;4978129;28;20026;-77
2021/01/09 08:09:13;;;;;;;13.32;7.28;;;0.00;74.80;;;;;;4962445;28;20022;-76
2021/01/09 08:11:45;;;;;;;16.58;7.72;;;0.00;74.50;;;;;;4961839;28;20093;-77
2021/01/09 08:14:12;;;;;;;15.95;8.95;;;0.10;74.60;;;;;;4977987;28;20483;-77
2021/01/09 08:17:10;;;;;;;23.95;9.60;;;0.10;74.50;;;;;;4978129;28;20494;-78
2021/01/09 08:19:56;;;;;;;19.63;9.25;;;0.30;77.20;;;;;;4995440;28;20022;-80
2021/01/09 08:22:31;;;;;;;19.33;10.65;;;1.00;88.80;;;;;;4995373;28;20062;-78
2021/01/09 08:25:33;;;;;;;15.18;9.35;;;1.70;90.40;;;;;;4978147;28;20069;-83
2021/01/09 08:28:04;;;;;;;19.55;10.30;;;2.20;84.60;;;;;;4994817;28;20166;-82
2021/01/09 08:31:10;;;;;;;21.15;10.77;;;2.70;78.60;;;;;;4977483;28;20022;-83
2021/01/09 08:33:38;;;;;;;20.23;11.73;;;3.10;75.10;;;;;;4994579;28;20034;-82
2021/01/09 08:36:05;;;;;;;15.45;9.07;;;3.40;70.30;;;;;;4977810;28;20034;-82
2021/01/09 08:38:31;;;;;;;13.00;8.07;;;3.40;66.30;;;;;;4977337;28;20068;-82
2021/01/09 08:40:58;;;;;;;14.23;8.27;;;3.30;62.20;;;;;;4995167;28;20030;-81
2021/01/09 08:43:25;;;;;;;15.13;9.10;;;3.20;62.50;;;;;;4977470;28;20081;-83
2021/01/09 08:45:54;;;;;;;13.80;9.35;;;3.20;60.80;;;;;;4977515;28;20109;-82
2021/01/09 08:48:27;;;;;;;17.25;10.10;;;3.10;61.10;;;;;;4990596;28;20089;-84
2021/01/09 08:51:07;;;;;;;17.55;10.60;;;2.90;59.90;;;;;;4977595;28;20040;-81
2021/01/09 08:53:55;;;;;;;16.35;9.95;;;3.00;60.50;;;;;;4977448;28;20023;-83
2021/01/09 08:56:27;;;;;;;17.65;10.65;;;3.00;60.70;;;;;;4995039;28;20042;-83
2021/01/09 08:58:53;;;;;;;18.40;11.73;;;3.20;61.10;;;;;;4977747;28;20022;-79
2021/01/09 09:01:25;;;;;;;18.30;11.23;;;3.20;61.10;;;;;;4995006;28;20487;-82
2021/01/09 09:03:54;;;;;;;19.02;11.05;;;3.20;60.70;;;;;;4977875;28;20026;-81
2021/01/09 09:06:22;;;;;;;18.88;11.80;;;3.10;60.40;;;;;;5003938;28;20025;-83
2021/01/09 09:08:48;;;;;;;19.38;12.45;;;3.20;61.00;;;;;;4977221;28;20142;-80
2021/01/09 09:11:15;;;;;;;20.85;12.30;;;3.30;60.90;;;;;;4977425;28;20025;-80
2021/01/09 09:13:42;;;;;;;19.58;12.45;;;3.30;60.80;;;;;;4978246;28;20053;-81
2021/01/09 09:16:19;;;;;;;17.95;11.18;;;3.30;60.20;;;;;;4994420;28;20034;-77
2021/01/09 09:18:45;;;;;;;19.38;12.18;;;3.40;60.20;;;;;;4994615;28;20106;-82
2021/01/09 09:21:11;;;;;;;21.98;12.15;;;3.40;59.80;;;;;;4977702;28;20041;-88
2021/01/09 09:23:37;;;;;;;16.58;11.63;;;3.40;59.70;;;;;;4976951;28;20042;-81
2021/01/09 09:26:13;;;;;;;19.25;11.90;;;3.40;59.70;;;;;;4977849;28;20472;-80
2021/01/09 09:28:55;;;;;;;22.00;12.98;;;3.60;59.50;;;;;;4969434;28;20030;-83
2021/01/09 09:31:26;;;;;;;23.48;13.50;;;3.70;59.60;;;;;;4989228;28;20030;-80
2021/01/09 09:34:03;;;;;;;22.95;13.93;;;3.90;59.10;;;;;;4992753;28;20034;-85
2021/01/09 09:36:48;;;;;;;22.15;14.10;;;3.90;58.40;;;;;;4976395;28;20118;-81
2021/01/09 09:39:21;;;;;;;17.88;12.73;;;4.00;58.20;;;;;;4990707;28;20018;-87
2021/01/09 09:41:54;;;;;;;18.27;12.35;;;4.00;57.90;;;;;;4970815;28;20041;-80
2021/01/09 09:44:21;;;;;;;23.23;14.27;;;4.00;58.10;;;;;;4977110;28;20124;-86
2021/01/09 09:46:49;;;;;;;24.83;15.13;;;4.10;58.20;;;;;;4976684;28;20034;-81
2021/01/09 09:49:15;;;;;;;17.77;11.70;;;4.20;58.20;;;;;;4977181;28;20030;-90
2021/01/09 09:51:41;;;;;;;22.25;13.52;;;4.40;57.80;;;;;;4976197;28;20030;-85
2021/01/09 09:54:07;;;;;;;20.88;12.95;;;4.60;57.30;;;;;;4993601;28;20023;-79
2021/01/09 09:56:42;;;;;;;20.15;12.73;;;4.80;56.50;;;;;;4976044;28;20026;-78
2021/01/09 09:59:11;;;;;;;15.57;11.07;;;4.90;55.30;;;;;;4976098;28;20477;-82
2021/01/09 10:01:38;;;;;;;16.17;10.98;;;5.00;54.30;;;;;;4994251;28;20738;-78
2021/01/09 10:04:11;;;;;;;15.25;9.80;;;4.50;54.10;;;;;;4976876;28;20034;-90
2021/01/09 10:06:42;;;;;;;16.17;9.95;;;4.60;54.70;;;;;;4961790;28;20034;-85
2021/01/09 10:09:17;;;;;;;20.92;11.82;;;4.60;54.40;;;;;;4961368;28;20030;-89
2021/01/09 10:11:44;;;;;;;19.00;10.80;;;4.80;54.10;;;;;;4977392;28;20026;-89
2021/01/09 10:14:10;;;;;;;18.45;11.30;;;4.90;53.80;;;;;;4977379;28;20038;-89
2021/01/09 10:16:37;;;;;;;19.70;11.82;;;5.20;53.60;;;;;;4960788;28;20096;-90
2021/01/09 10:19:09;;;;;;;19.67;12.35;;;5.60;53.00;;;;;;4976929;28;20105;-82
2021/01/09 10:21:36;;;;;;;21.15;13.13;;;6.00;52.10;;;;;;4994621;28;20034;-83
2021/01/09 10:24:02;;;;;;;20.15;12.57;;;6.40;51.10;;;;;;4976734;28;20042;-77
2021/01/09 10:26:32;;;;;;;18.63;12.38;;;6.70;49.90;;;;;;4976252;28;20033;-81
2021/01/09 10:29:01;;;;;;;22.25;12.73;;;7.00;48.80;;;;;;4976534;28;20023;-80
2021/01/09 10:31:32;;;;;;;21.95;13.60;;;7.10;47.90;;;;;;4994286;28;20026;-83
2021/01/09 10:34:00;;;;;;;16.45;11.45;;;7.30;47.20;;;;;;4994413;28;20049;-81
2021/01/09 10:36:28;;;;;;;16.92;11.05;;;7.50;46.60;;;;;;4978944;28;20050;-79
2021/01/09 10:38:54;;;;;;;19.90;13.25;;;7.60;45.70;;;;;;4980092;28;20085;-82
2021/01/09 10:41:20;;;;;;;18.45;10.90;;;7.70;45.20;;;;;;4997217;28;20038;-79
2021/01/09 10:43:46;;;;;;;15.20;9.77;;;7.70;44.70;;;;;;4980377;28;20027;-83
2021/01/09 10:46:24;;;;;;;16.48;10.30;;;7.60;45.00;;;;;;4983064;28;20080;-89
2021/01/09 10:48:51;;;;;;;17.90;11.13;;;7.80;44.70;;;;;;4999679;28;20513;-76
2021/01/09 10:51:17;;;;;;;19.52;12.70;;;7.90;44.30;;;;;;4983032;28;20128;-80
2021/01/09 10:53:43;;;;;;;18.25;12.30;;;7.90;44.30;;;;;;4999849;28;20052;-85
2021/01/09 10:56:09;;;;;;;22.10;12.38;;;7.70;44.40;;;;;;4999072;28;20042;-77
2021/01/09 10:58:35;;;;;;;19.75;12.07;;;7.50;44.30;;;;;;5017000;28;20029;-79
2021/01/09 11:01:06;;;;;;;16.60;10.75;;;7.00;44.90;;;;;;5016555;28;20057;-77
2021/01/09 11:03:32;;;;;;;18.45;11.40;;;7.10;45.60;;;;;;5016297;28;20022;-78
2021/01/09 11:06:02;;;;;;;18.23;12.80;;;7.20;45.70;;;;;;4982638;28;20088;-83
2021/01/09 11:08:28;;;;;;;17.50;11.57;;;7.30;45.90;;;;;;4998618;28;20026;-78
2021/01/09 11:10:55;;;;;;;15.05;10.05;;;7.40;45.80;;;;;;4998698;28;20113;-78
2021/01/09 11:13:20;;;;;;;16.63;10.52;;;7.30;46.00;;;;;;5016298;28;20033;-78
2021/01/09 11:15:47;;;;;;;16.05;11.13;;;7.30;46.30;;;;;;4998945;28;20042;-78
2021/01/09 11:18:16;;;;;;;16.13;11.57;;;6.90;46.80;;;;;;4999807;28;20440;-77
2021/01/09 11:20:53;;;;;;;17.02;11.15;;;6.40;48.00;;;;;;5016857;28;20061;-82
2021/01/09 11:23:20;;;;;;;17.83;11.45;;;6.50;48.20;;;;;;4998688;28;20073;-80
2021/01/09 11:25:46;;;;;;;16.95;11.18;;;6.60;47.70;;;;;;4997721;28;20033;-78
2021/01/09 11:28:13;;;;;;;17.45;11.65;;;6.90;47.60;;;;;;4998103;28;20021;-77
2021/01/09 11:30:39;;;;;;;17.63;12.27;;;7.40;47.50;;;;;;4997605;28;20123;-77
2021/01/09 11:33:05;;;;;;;15.32;11.43;;;8.10;46.90;;;;;;4998602;28;20025;-80
2021/01/09 11:35:33;;;;;;;17.05;12.18;;;8.90;45.60;;;;;;5001102;28;20042;-80
2021/01/09 11:37:59;;;;;;;18.85;12.50;;;9.80;44.10;;;;;;4983613;28;20386;-80
2021/01/09 11:40:26;;;;;;;17.60;12.38;;;10.80;42.30;;;;;;5000607;28;20068;-82
2021/01/09 11:42:52;;;;;;;16.60;12.10;;;11.90;40.50;;;;;;5019052;28;20033;-79
2021/01/09 11:45:19;;;;;;;15.80;11.38;;;13.00;38.60;;;;;;5000102;28;20028;-80
2021/01/09 11:47:45;;;;;;;15.73;10.85;;;14.10;36.80;;;;;;4983439;28;20068;-79
2021/01/09 11:50:12;;;;;;;15.93;11.60;;;15.10;34.60;;;;;;4998482;28;20061;-78
2021/01/09 11:52:37;;;;;;;13.23;9.93;;;16.20;32.60;;;;;;4982793;28;20036;-79
2021/01/09 11:55:04;;;;;;;12.10;9.70;;;16.60;30.60;;;;;;4999320;28;20132;-79
2021/01/09 11:57:30;;;;;;;12.77;9.57;;;17.10;29.00;;;;;;4997694;28;20022;-79
2021/01/09 11:59:56;;;;;;;12.50;9.93;;;16.10;27.50;;;;;;4997412;28;20058;-78
2021/01/09 12:02:21;;;;;;;10.88;8.30;;;15.80;27.10;;;;;;4998068;28;20028;-80
2021/01/09 12:04:47;;;;;;;10.95;8.30;;;15.00;26.90;;;;;;4982193;28;20029;-77
2021/01/09 12:07:12;;;;;;;11.52;8.00;;;14.60;26.80;;;;;;4999570;28;20029;-83
2021/01/09 12:09:40;;;;;;;9.50;6.82;;;14.60;26.90;;;;;;4998444;28;20064;-79
2021/01/09 12:12:06;;;;;;;7.85;5.93;;;14.00;26.70;;;;;;4998227;28;20109;-78
2021/01/09 12:14:32;;;;;;;9.55;6.95;;;13.40;26.70;;;;;;4999041;28;20463;-78
2021/01/09 12:17:02;;;;;;;8.05;6.05;;;12.80;27.00;;;;;;4999423;28;20034;-85
2021/01/09 12:19:28;;;;;;;12.68;8.85;;;13.10;27.70;;;;;;4983021;28;20037;-79
2021/01/09 12:21:55;;;;;;;11.82;8.70;;;13.10;28.00;;;;;;4997703;28;20441;-76
2021/01/09 12:24:21;;;;;;;12.35;9.60;;;13.90;28.80;;;;;;4997276;28;20100;-78
2021/01/09 12:26:56;;;;;;;14.05;10.65;;;14.90;28.90;;;;;;4996947;28;20047;-79
2021/01/09 12:29:22;;;;;;;14.95;11.00;;;16.30;28.40;;;;;;4996740;28;20022;-80
2021/01/09 12:31:50;;;;;;;12.18;9.77;;;17.00;27.50;;;;;;4996870;28;20079;-79
2021/01/09 12:34:16;;;;;;;13.30;10.20;;;17.80;26.50;;;;;;4997114;28;20038;-81
2021/01/09 12:36:43;;;;;;;14.45;11.85;;;19.20;25.20;;;;;;5012732;28;20482;-83
2021/01/09 12:39:09;;;;;;;15.05;11.80;;;20.10;23.70;;;;;;4996706;28;20409;-82
2021/01/09 12:41:37;;;;;;;13.57;11.20;;;20.70;22.20;;;;;;4996583;28;20512;-84
2021/01/09 12:44:05;;;;;;;13.27;10.48;;;21.30;21.10;;;;;;4996599;28;20479;-84
2021/01/09 12:46:48;;;;;;;11.73;10.45;;;21.90;19.90;;;;;;5014563;28;20068;-80